PWSweather.com
Personal Weather Stations
Station Observations
SWHWX01
St AppolinardFR 38160

St AppolinardFR 38160

Lat: 45.191, Lon: 5.268

Elevation: 1460

Station Type: Davis Vantage Pro2 Plus

www.sweetwebhome.com/?show=wxindex

High Low Average
Temperature 87.2°F30.7°C 71.1°F21.7°C 78.7°F25.9°C
Dew Point 66.0°F18.9°C 60.8°F16.0°C 64.0°F17.8°C
Winds 8.4 mph 13.5 kmh Calm Calm 4.0 mph W6.4 kmh W
Wind Gusts 13.0 mph20.9 kmh -- 6.0 mph9.7 kmh
Humidity 72% 49% 61%
Pressure 30.02 in1016.6 mb 29.95 in1014.2 mb -
Precipitation 0.00 in0.0 mm - -
Hour Temp Dew Point Humidity Winds Wind Gusts Pressure Precip Precip Rate Daily Precip Total
12:00 AM 77.7°F25.4°C 63.2°F17.3°C 61% 2.3 mph NNW3.7 kmh NNW 3.0 mph4.8 kmh 29.96 in1014.6 mb - 0.00 in0.0 mm 0.00 in0.0 mm
12:30 AM 76.8°F24.9°C 63.2°F17.3°C 63% Calm Calm -- 29.95 in1014.2 mb - 0.00 in0.0 mm 0.00 in0.0 mm
01:00 AM 75.0°F23.9°C 62.8°F17.1°C 66% 0.9 mph NNW1.4 kmh NNW 2.0 mph3.2 kmh 29.95 in1014.2 mb - 0.00 in0.0 mm 0.00 in0.0 mm
01:30 AM 75.3°F24.1°C 63.1°F17.3°C 66% 0.1 mph NNW0.2 kmh NNW 2.0 mph3.2 kmh 29.95 in1014.2 mb - 0.00 in0.0 mm 0.00 in0.0 mm
02:00 AM 75.1°F23.9°C 63.4°F17.4°C 67% 1.5 mph NE2.4 kmh NE 3.0 mph4.8 kmh 29.95 in1014.2 mb - 0.00 in0.0 mm 0.00 in0.0 mm
02:30 AM 74.1°F23.4°C 63.3°F17.4°C 69% 0.9 mph NW1.4 kmh NW 3.0 mph4.8 kmh 29.95 in1014.2 mb - 0.00 in0.0 mm 0.00 in0.0 mm
03:00 AM 74.1°F23.4°C 62.9°F17.2°C 68% 7.5 mph N12.1 kmh N 8.0 mph12.9 kmh 29.95 in1014.2 mb - 0.00 in0.0 mm 0.00 in0.0 mm
03:30 AM 73.4°F23.0°C 62.6°F17.0°C 69% 6.4 mph NNW10.3 kmh NNW 11.0 mph17.7 kmh 29.95 in1014.2 mb - 0.00 in0.0 mm 0.00 in0.0 mm
04:00 AM 72.8°F22.7°C 62.4°F16.9°C 70% 5.8 mph NNW9.3 kmh NNW 9.0 mph14.5 kmh 29.95 in1014.2 mb - 0.00 in0.0 mm 0.00 in0.0 mm
04:30 AM 72.2°F22.3°C 62.3°F16.8°C 71% 2.1 mph N3.4 kmh N 2.0 mph3.2 kmh 29.96 in1014.6 mb - 0.00 in0.0 mm 0.00 in0.0 mm
05:00 AM 71.5°F21.9°C 62.0°F16.7°C 72% Calm Calm 1.0 mph1.6 kmh 29.96 in1014.6 mb - 0.00 in0.0 mm 0.00 in0.0 mm
05:30 AM 71.3°F21.8°C 61.8°F16.6°C 72% 6.4 mph NNW10.3 kmh NNW 9.0 mph14.5 kmh 29.96 in1014.6 mb - 0.00 in0.0 mm 0.00 in0.0 mm
06:00 AM 71.1°F21.7°C 61.6°F16.4°C 72% 2.1 mph NNW3.4 kmh NNW 3.0 mph4.8 kmh 29.97 in1014.9 mb - 0.00 in0.0 mm 0.00 in0.0 mm
06:30 AM 71.7°F22.1°C 61.4°F16.3°C 70% 6.2 mph NNW10.0 kmh NNW 9.0 mph14.5 kmh 29.98 in1015.2 mb - 0.00 in0.0 mm 0.00 in0.0 mm
07:00 AM 72.4°F22.4°C 60.8°F16.0°C 67% 8.4 mph NNW13.5 kmh NNW 13.0 mph20.9 kmh 29.98 in1015.2 mb - 0.00 in0.0 mm 0.00 in0.0 mm
07:30 AM 72.9°F22.7°C 61.3°F16.3°C 67% 4.4 mph NW7.1 kmh NW 12.0 mph19.3 kmh 29.99 in1015.6 mb - 0.00 in0.0 mm 0.00 in0.0 mm
08:00 AM 72.9°F22.7°C 61.7°F16.5°C 68% 0.4 mph N0.6 kmh N 1.0 mph1.6 kmh 29.99 in1015.6 mb - 0.00 in0.0 mm 0.00 in0.0 mm
08:30 AM 75.4°F24.1°C 61.9°F16.6°C 63% 1.7 mph ENE2.7 kmh ENE 3.0 mph4.8 kmh 30.00 in1015.9 mb - 0.00 in0.0 mm 0.00 in0.0 mm
09:00 AM 76.9°F24.9°C 63.3°F17.4°C 63% 1.7 mph ENE2.7 kmh ENE 3.0 mph4.8 kmh 30.00 in1015.9 mb - 0.00 in0.0 mm 0.00 in0.0 mm
09:30 AM 78.5°F25.8°C 63.9°F17.7°C 61% 1.3 mph NNW2.1 kmh NNW 7.0 mph11.3 kmh 30.00 in1015.9 mb - 0.00 in0.0 mm 0.00 in0.0 mm
10:00 AM 77.7°F25.4°C 62.7°F17.1°C 60% 6.3 mph NW10.1 kmh NW 8.0 mph12.9 kmh 30.01 in1016.3 mb - 0.00 in0.0 mm 0.00 in0.0 mm
10:30 AM 81.5°F27.5°C 64.8°F18.2°C 57% 2.4 mph NNW3.9 kmh NNW 8.0 mph12.9 kmh 30.01 in1016.3 mb - 0.00 in0.0 mm 0.00 in0.0 mm
11:00 AM 83.1°F28.4°C 64.7°F18.2°C 54% 2.9 mph ENE4.7 kmh ENE 5.0 mph8.0 kmh 30.01 in1016.3 mb - 0.00 in0.0 mm 0.00 in0.0 mm
11:30 AM 81.4°F27.4°C 64.2°F17.9°C 56% 3.7 mph N6.0 kmh N 5.0 mph8.0 kmh 30.01 in1016.3 mb - 0.00 in0.0 mm 0.00 in0.0 mm
12:00 PM 82.7°F28.2°C 65.4°F18.6°C 56% 3.4 mph NW5.5 kmh NW 8.0 mph12.9 kmh 30.00 in1015.9 mb - 0.00 in0.0 mm 0.00 in0.0 mm
12:30 PM 83.5°F28.6°C 65.1°F18.4°C 54% 6.8 mph N10.9 kmh N 10.0 mph16.1 kmh 30.00 in1015.9 mb - 0.00 in0.0 mm 0.00 in0.0 mm
01:00 PM 84.1°F28.9°C 64.6°F18.1°C 52% 3.5 mph NNW5.6 kmh NNW 6.0 mph9.7 kmh 29.99 in1015.6 mb - 0.00 in0.0 mm 0.00 in0.0 mm
01:30 PM 85.2°F29.6°C 65.0°F18.3°C 51% 5.4 mph NE8.7 kmh NE 8.0 mph12.9 kmh 29.98 in1015.2 mb - 0.00 in0.0 mm 0.00 in0.0 mm
02:00 PM 85.1°F29.5°C 64.4°F18.0°C 50% 6.1 mph NNW9.8 kmh NNW 9.0 mph14.5 kmh 29.99 in1015.6 mb - 0.00 in0.0 mm 0.00 in0.0 mm
02:30 PM 86.2°F30.1°C 64.8°F18.2°C 49% 4.1 mph N6.6 kmh N 4.0 mph6.4 kmh 29.98 in1015.2 mb - 0.00 in0.0 mm 0.00 in0.0 mm
03:00 PM 86.6°F30.3°C 65.1°F18.4°C 49% 5.5 mph NW8.9 kmh NW 9.0 mph14.5 kmh 29.97 in1014.9 mb - 0.00 in0.0 mm 0.00 in0.0 mm
03:30 PM 87.2°F30.7°C 65.7°F18.7°C 49% 3.0 mph ENE4.8 kmh ENE 3.0 mph4.8 kmh 29.96 in1014.6 mb - 0.00 in0.0 mm 0.00 in0.0 mm
04:00 PM 87.2°F30.7°C 65.7°F18.7°C 49% 7.9 mph NW12.7 kmh NW 10.0 mph16.1 kmh 29.97 in1014.9 mb - 0.00 in0.0 mm 0.00 in0.0 mm
04:30 PM 86.6°F30.3°C 65.7°F18.7°C 50% 3.2 mph N5.1 kmh N 6.0 mph9.7 kmh 29.97 in1014.9 mb - 0.00 in0.0 mm 0.00 in0.0 mm
05:00 PM 85.1°F29.5°C 65.5°F18.6°C 52% 6.6 mph NW10.6 kmh NW 9.0 mph14.5 kmh 29.98 in1015.2 mb - 0.00 in0.0 mm 0.00 in0.0 mm
05:30 PM 83.9°F28.8°C 65.5°F18.6°C 54% 3.9 mph NNW6.3 kmh NNW 7.0 mph11.3 kmh 29.98 in1015.2 mb - 0.00 in0.0 mm 0.00 in0.0 mm
06:00 PM 83.1°F28.4°C 65.8°F18.8°C 56% 2.9 mph NNW4.7 kmh NNW 6.0 mph9.7 kmh 29.98 in1015.2 mb - 0.00 in0.0 mm 0.00 in0.0 mm
06:30 PM 82.1°F27.8°C 65.9°F18.8°C 58% 3.0 mph N4.8 kmh N 4.0 mph6.4 kmh 29.99 in1015.6 mb - 0.00 in0.0 mm 0.00 in0.0 mm
07:00 PM 81.4°F27.4°C 65.7°F18.7°C 59% 4.1 mph NNW6.6 kmh NNW 6.0 mph9.7 kmh 30.00 in1015.9 mb - 0.00 in0.0 mm 0.00 in0.0 mm
07:30 PM 80.7°F27.1°C 66.0°F18.9°C 61% 1.0 mph N1.6 kmh N 1.0 mph1.6 kmh 30.00 in1015.9 mb - 0.00 in0.0 mm 0.00 in0.0 mm
08:00 PM 79.8°F26.6°C 65.2°F18.4°C 61% 0.3 mph N0.5 kmh N 1.0 mph1.6 kmh 30.00 in1015.9 mb - 0.00 in0.0 mm 0.00 in0.0 mm
08:30 PM 78.0°F25.6°C 65.3°F18.5°C 65% 1.0 mph N1.6 kmh N 3.0 mph4.8 kmh 30.01 in1016.3 mb - 0.00 in0.0 mm 0.00 in0.0 mm
09:00 PM 77.2°F25.1°C 65.0°F18.3°C 66% 1.3 mph N2.1 kmh N 2.0 mph3.2 kmh 30.02 in1016.6 mb - 0.00 in0.0 mm 0.00 in0.0 mm
09:30 PM 76.8°F24.9°C 65.0°F18.3°C 67% 3.7 mph N6.0 kmh N 5.0 mph8.0 kmh 30.02 in1016.6 mb - 0.00 in0.0 mm 0.00 in0.0 mm
10:00 PM 76.7°F24.8°C 64.9°F18.3°C 67% 3.8 mph N6.1 kmh N 5.0 mph8.0 kmh 30.02 in1016.6 mb - 0.00 in0.0 mm 0.00 in0.0 mm
10:30 PM 75.9°F24.4°C 65.0°F18.3°C 69% 3.4 mph NNW5.5 kmh NNW 4.0 mph6.4 kmh 30.01 in1016.3 mb - 0.00 in0.0 mm 0.00 in0.0 mm
11:00 PM 76.7°F24.8°C 64.9°F18.3°C 67% 4.1 mph NNW6.6 kmh NNW 5.0 mph8.0 kmh 30.00 in1015.9 mb - 0.00 in0.0 mm 0.00 in0.0 mm
11:30 PM 76.0°F24.4°C 64.7°F18.2°C 68% Calm Calm -- 30.01 in1016.3 mb - 0.00 in0.0 mm 0.00 in0.0 mm